Time;durP1;ratioP1;P1;durP2;ratioP2;P2;SDS_P1;SDS_P2;PMS_P1;PMS_P2;Temp;Humidity;BMP_temperature;BMP_pressure;BME280_temperature;BME280_humidity;BME280_pressure;Samples;Min_cycle;Max_cycle;Signal;HPM_P1;HPM_P2
2023/07/20 00:01:32;;;;;;;7.03;3.53;;;16.00;99.90;;;;;;5101979;28;20453;-57
2023/07/20 00:03:58;;;;;;;7.15;4.13;;;16.00;99.90;;;;;;5101779;28;20036;-57
2023/07/20 00:06:25;;;;;;;6.00;4.28;;;16.00;99.90;;;;;;5100668;28;20039;-57
2023/07/20 00:08:51;;;;;;;5.32;4.05;;;16.00;99.90;;;;;;5102047;28;20503;-57
2023/07/20 00:11:17;;;;;;;4.53;4.07;;;16.00;99.90;;;;;;5099834;28;20042;-57
2023/07/20 00:13:43;;;;;;;5.22;4.53;;;16.00;99.90;;;;;;5102150;28;20079;-58
2023/07/20 00:16:09;;;;;;;5.72;4.10;;;15.90;99.90;;;;;;5100212;28;20047;-56
2023/07/20 00:18:34;;;;;;;4.68;4.25;;;16.00;99.90;;;;;;5101910;28;20044;-55
2023/07/20 00:21:01;;;;;;;4.78;4.30;;;16.00;99.90;;;;;;5101144;28;20082;-57
2023/07/20 00:23:27;;;;;;;5.68;4.18;;;15.90;99.90;;;;;;5100436;28;20048;-57
2023/07/20 00:25:53;;;;;;;5.15;3.90;;;15.90;99.90;;;;;;5100130;28;20055;-57
2023/07/20 00:28:19;;;;;;;5.22;3.75;;;15.90;99.90;;;;;;5099699;28;20393;-57
2023/07/20 00:30:45;;;;;;;5.18;3.78;;;15.90;99.90;;;;;;5101857;28;20122;-57
2023/07/20 00:33:12;;;;;;;3.95;3.28;;;15.90;99.90;;;;;;5099869;28;20044;-58
2023/07/20 00:35:38;;;;;;;3.88;3.40;;;15.90;99.90;;;;;;5101719;28;20563;-57
2023/07/20 00:38:04;;;;;;;4.32;3.47;;;15.90;99.90;;;;;;5100534;28;20075;-56
2023/07/20 00:40:40;;;;;;;4.38;3.45;;;15.80;99.90;;;;;;5099984;28;20075;-58
2023/07/20 00:43:07;;;;;;;4.05;3.28;;;15.80;99.90;;;;;;5101309;28;20488;-57
2023/07/20 00:45:34;;;;;;;5.95;3.10;;;15.80;99.90;;;;;;5099481;28;20435;-57
2023/07/20 00:48:01;;;;;;;4.50;3.55;;;15.80;99.90;;;;;;5101646;28;20028;-57
2023/07/20 00:50:28;;;;;;;4.03;3.60;;;15.70;99.90;;;;;;5098192;28;20044;-57
2023/07/20 00:52:55;;;;;;;4.32;3.45;;;15.70;99.90;;;;;;5101189;28;20040;-58
2023/07/20 00:55:22;;;;;;;4.68;3.25;;;15.70;99.90;;;;;;5100540;28;20390;-57
2023/07/20 00:57:48;;;;;;;4.72;3.30;;;15.60;99.90;;;;;;5098604;28;20048;-57
2023/07/20 01:00:15;;;;;;;4.53;3.47;;;15.60;99.90;;;;;;5101031;28;20036;-57
2023/07/20 01:02:40;;;;;;;3.33;3.00;;;15.70;99.90;;;;;;5098873;28;20507;-57
2023/07/20 01:05:07;;;;;;;3.65;3.03;;;15.70;99.90;;;;;;5101166;28;20040;-57
2023/07/20 01:07:38;;;;;;;3.55;3.00;;;15.60;99.90;;;;;;5099147;28;20096;-57
2023/07/20 01:10:07;;;;;;;3.20;2.65;;;15.60;99.90;;;;;;5100494;28;20549;-58
2023/07/20 01:12:40;;;;;;;3.60;3.10;;;15.60;99.90;;;;;;5100055;28;20078;-57
2023/07/20 01:15:07;;;;;;;3.78;2.97;;;15.60;99.90;;;;;;5098955;28;20078;-58
2023/07/20 01:17:34;;;;;;;6.93;3.10;;;15.60;99.90;;;;;;5100759;28;20063;-58
2023/07/20 01:20:00;;;;;;;5.65;3.00;;;15.60;99.90;;;;;;5098855;28;20072;-58
2023/07/20 01:22:50;;;;;;;7.55;3.10;;;15.60;99.90;;;;;;5100961;28;20573;-57
2023/07/20 01:25:15;;;;;;;3.28;2.88;;;15.60;99.90;;;;;;5099817;28;20044;-57
2023/07/20 01:28:29;;;;;;;4.43;2.95;;;15.50;99.90;;;;;;5099238;28;20052;-57
2023/07/20 01:31:16;;;;;;;4.10;3.25;;;15.50;99.90;;;;;;5038317;28;20122;-57
2023/07/20 01:33:43;;;;;;;4.05;3.22;;;15.50;99.90;;;;;;5099517;28;20042;-58
2023/07/20 01:36:10;;;;;;;4.22;3.50;;;15.40;99.90;;;;;;5099258;28;20095;-58
2023/07/20 01:38:37;;;;;;;3.92;3.47;;;15.40;99.90;;;;;;5098872;28;20052;-58
2023/07/20 01:41:03;;;;;;;3.70;3.15;;;15.40;99.90;;;;;;5098208;28;20032;-57
2023/07/20 01:43:29;;;;;;;4.93;3.70;;;15.30;99.90;;;;;;5099305;28;20570;-57
2023/07/20 01:45:55;;;;;;;6.22;3.90;;;15.30;99.90;;;;;;5098287;28;20048;-57
2023/07/20 01:48:20;;;;;;;3.97;3.58;;;15.20;99.90;;;;;;5100737;28;20064;-58
2023/07/20 01:50:46;;;;;;;5.97;3.80;;;15.20;99.90;;;;;;5098952;28;20040;-57
2023/07/20 01:53:12;;;;;;;4.28;3.88;;;15.20;99.90;;;;;;5099384;28;20043;-57
2023/07/20 01:55:38;;;;;;;4.43;4.03;;;15.10;99.90;;;;;;5100028;28;20066;-57
2023/07/20 01:58:03;;;;;;;4.20;3.80;;;15.10;99.90;;;;;;5098152;28;20040;-58
2023/07/20 02:00:29;;;;;;;4.93;3.80;;;15.10;99.90;;;;;;5098995;28;20092;-57
2023/07/20 02:02:55;;;;;;;5.10;4.57;;;15.10;99.90;;;;;;5097692;28;20529;-57
2023/07/20 02:05:20;;;;;;;4.75;4.20;;;15.10;99.90;;;;;;5100660;28;20048;-57
2023/07/20 02:07:46;;;;;;;4.45;3.80;;;15.00;99.90;;;;;;5098472;28;20064;-56
2023/07/20 02:10:12;;;;;;;7.53;4.60;;;15.00;99.90;;;;;;5098840;28;20055;-57
2023/07/20 02:12:37;;;;;;;5.97;4.40;;;15.00;99.90;;;;;;5099479;28;20032;-57
2023/07/20 02:15:03;;;;;;;5.20;4.70;;;14.90;99.90;;;;;;5098190;28;20629;-57
2023/07/20 02:17:29;;;;;;;5.35;4.80;;;14.90;99.90;;;;;;5098523;28;20411;-57
2023/07/20 02:20:00;;;;;;;4.88;4.35;;;14.90;99.90;;;;;;5097711;28;20050;-57
2023/07/20 02:22:25;;;;;;;5.57;4.43;;;14.90;99.90;;;;;;5100144;28;20032;-57
2023/07/20 02:24:51;;;;;;;4.95;4.45;;;14.80;99.90;;;;;;5097933;28;20500;-56
2023/07/20 02:27:17;;;;;;;6.53;4.43;;;14.80;99.90;;;;;;5099342;28;20504;-57
2023/07/20 02:29:43;;;;;;;6.43;4.80;;;14.70;99.90;;;;;;5099577;28;20048;-57
2023/07/20 02:32:09;;;;;;;6.10;4.90;;;14.80;99.90;;;;;;5096473;28;20044;-57
2023/07/20 02:34:36;;;;;;;5.85;5.20;;;14.70;99.90;;;;;;5099866;28;20047;-57
2023/07/20 02:37:01;;;;;;;5.95;4.90;;;14.70;99.90;;;;;;5097724;28;20055;-56
2023/07/20 02:39:28;;;;;;;6.75;4.93;;;14.70;99.90;;;;;;5098668;28;20040;-57
2023/07/20 02:41:54;;;;;;;5.93;5.28;;;14.70;99.90;;;;;;5097851;28;20044;-57
2023/07/20 02:44:19;;;;;;;6.13;5.50;;;14.70;99.90;;;;;;5099375;28;20040;-57
2023/07/20 02:46:45;;;;;;;5.35;4.85;;;14.60;99.90;;;;;;5099336;28;20516;-56
2023/07/20 02:49:11;;;;;;;5.72;5.22;;;14.60;99.90;;;;;;5097936;28;20076;-57
2023/07/20 02:51:37;;;;;;;5.90;5.30;;;14.60;99.90;;;;;;5099479;28;20044;-57
2023/07/20 02:54:03;;;;;;;8.65;5.57;;;14.50;99.90;;;;;;5097442;28;20044;-57
2023/07/20 02:56:29;;;;;;;8.48;5.50;;;14.60;99.90;;;;;;5100012;28;20040;-57
2023/07/20 02:58:55;;;;;;;5.88;5.30;;;14.50;99.90;;;;;;5097504;28;20051;-57
2023/07/20 03:01:21;;;;;;;6.65;5.95;;;14.50;99.90;;;;;;5099718;28;20419;-58
2023/07/20 03:03:47;;;;;;;7.30;5.00;;;14.50;99.90;;;;;;5098856;28;20393;-56
2023/07/20 03:06:16;;;;;;;9.32;5.70;;;14.40;99.90;;;;;;5098049;28;20585;-56
2023/07/20 03:08:51;;;;;;;7.03;5.15;;;14.40;99.90;;;;;;5099110;28;20121;-57
2023/07/20 03:11:18;;;;;;;6.18;5.57;;;14.40;99.90;;;;;;5095838;28;20048;-57
2023/07/20 03:13:45;;;;;;;7.18;5.60;;;14.40;99.90;;;;;;5098319;28;20040;-56
2023/07/20 03:16:12;;;;;;;6.90;6.03;;;14.30;99.90;;;;;;5097704;28;20043;-57
2023/07/20 03:18:38;;;;;;;7.38;6.07;;;14.30;99.90;;;;;;5098868;28;20044;-58
2023/07/20 03:21:05;;;;;;;6.78;5.70;;;14.30;99.90;;;;;;5097790;28;20052;-57
2023/07/20 03:23:31;;;;;;;5.70;5.10;;;14.30;99.90;;;;;;5101227;28;20052;-58
2023/07/20 03:25:56;;;;;;;6.18;5.20;;;14.30;99.90;;;;;;5102528;28;20058;-57
2023/07/20 03:28:22;;;;;;;10.93;5.82;;;14.20;99.90;;;;;;5100971;28;20048;-57
2023/07/20 03:30:56;;;;;;;6.18;5.13;;;14.20;99.90;;;;;;5103186;28;20109;-57
2023/07/20 03:33:31;;;;;;;5.82;5.22;;;14.40;99.90;;;;;;5101314;28;20123;-57
2023/07/20 03:35:57;;;;;;;7.30;5.35;;;14.20;99.90;;;;;;5101814;28;20047;-57
2023/07/20 03:38:24;;;;;;;7.80;5.47;;;14.20;99.90;;;;;;5102520;28;20040;-57
2023/07/20 03:40:57;;;;;;;6.40;5.72;;;14.10;99.90;;;;;;5100764;28;20036;-58
2023/07/20 03:43:24;;;;;;;6.82;4.85;;;14.10;99.90;;;;;;5101512;28;20044;-57
2023/07/20 03:45:51;;;;;;;6.80;6.03;;;14.10;99.90;;;;;;5100403;28;20040;-57
2023/07/20 03:48:26;;;;;;;6.15;5.20;;;14.10;99.90;;;;;;5102829;28;20040;-57
2023/07/20 03:50:53;;;;;;;6.75;5.78;;;14.10;99.90;;;;;;5101781;28;20052;-57
2023/07/20 03:53:19;;;;;;;6.20;5.60;;;14.00;99.90;;;;;;5101050;28;20095;-58
2023/07/20 03:55:46;;;;;;;6.50;5.72;;;14.00;99.90;;;;;;5102179;28;20032;-57
2023/07/20 03:58:13;;;;;;;8.38;5.40;;;14.00;99.90;;;;;;5100453;28;20075;-57
2023/07/20 04:00:39;;;;;;;6.85;5.50;;;14.00;99.90;;;;;;5102587;28;20063;-57
2023/07/20 04:03:05;;;;;;;7.40;5.32;;;14.00;99.90;;;;;;5100006;28;20048;-56
2023/07/20 04:05:31;;;;;;;8.30;5.80;;;13.40;99.90;;;;;;5102471;28;20062;-57
2023/07/20 04:07:56;;;;;;;7.28;5.65;;;14.00;99.90;;;;;;5101145;28;20036;-57
2023/07/20 04:10:22;;;;;;;7.13;5.72;;;14.00;99.90;;;;;;5099824;28;20056;-57
2023/07/20 04:12:48;;;;;;;6.10;5.25;;;13.90;99.90;;;;;;5101659;28;20039;-57
2023/07/20 04:15:14;;;;;;;6.47;5.53;;;13.90;99.90;;;;;;5100006;28;20040;-57
2023/07/20 04:17:43;;;;;;;8.20;5.65;;;13.90;99.90;;;;;;5102009;28;20532;-57
2023/07/20 04:20:09;;;;;;;7.30;5.75;;;13.90;99.90;;;;;;5099986;28;20090;-57
2023/07/20 04:22:35;;;;;;;6.43;5.47;;;13.80;99.90;;;;;;5102171;28;20043;-57
2023/07/20 04:25:01;;;;;;;6.40;5.38;;;13.80;99.90;;;;;;5100730;28;20524;-56
2023/07/20 04:27:27;;;;;;;7.07;5.55;;;13.80;99.90;;;;;;5100616;28;20044;-57
2023/07/20 04:29:52;;;;;;;6.45;5.40;;;13.80;99.90;;;;;;5101551;28;20051;-57
2023/07/20 04:32:18;;;;;;;10.40;5.45;;;13.80;99.90;;;;;;5099399;28;20130;-57
2023/07/20 04:34:44;;;;;;;6.97;5.22;;;13.80;99.90;;;;;;5100392;28;20239;-57
2023/07/20 04:37:09;;;;;;;6.88;5.57;;;13.80;99.90;;;;;;5099246;28;20047;-57
2023/07/20 04:39:35;;;;;;;6.28;5.32;;;13.80;99.90;;;;;;5102113;28;20096;-57
2023/07/20 04:42:01;;;;;;;6.43;5.35;;;13.80;99.90;;;;;;5098634;28;20107;-57
2023/07/20 04:44:26;;;;;;;6.40;5.22;;;13.80;99.90;;;;;;5100613;28;20081;-56
2023/07/20 04:46:52;;;;;;;6.72;5.70;;;13.80;99.90;;;;;;5099929;28;20048;-57
2023/07/20 04:49:18;;;;;;;7.95;5.57;;;13.80;99.90;;;;;;5099517;28;20036;-56
2023/07/20 04:51:43;;;;;;;6.60;5.30;;;13.80;99.90;;;;;;5101266;28;20044;-56
2023/07/20 04:54:09;;;;;;;5.78;4.90;;;13.80;99.90;;;;;;5099027;28;20040;-57
2023/07/20 04:56:35;;;;;;;6.15;5.28;;;13.90;99.90;;;;;;5101544;28;20040;-57
2023/07/20 04:59:00;;;;;;;5.95;5.30;;;13.80;99.90;;;;;;5099626;28;20546;-56
2023/07/20 05:01:29;;;;;;;8.52;5.95;;;13.90;99.90;;;;;;5100760;28;20047;-58
2023/07/20 05:03:54;;;;;;;6.82;5.28;;;13.90;99.90;;;;;;5101019;28;20051;-56
2023/07/20 05:06:20;;;;;;;8.07;5.70;;;13.90;99.90;;;;;;5099508;28;20761;-57
2023/07/20 05:08:46;;;;;;;9.05;5.18;;;13.90;99.90;;;;;;5100876;28;20040;-56
2023/07/20 05:11:12;;;;;;;5.82;5.13;;;13.90;99.90;;;;;;5098604;28;20051;-57
2023/07/20 05:13:37;;;;;;;7.13;5.55;;;13.90;99.90;;;;;;5099742;28;20059;-57
2023/07/20 05:16:03;;;;;;;7.10;5.22;;;13.90;99.90;;;;;;5099020;28;20048;-56
2023/07/20 05:18:29;;;;;;;6.28;5.68;;;14.00;99.90;;;;;;5100661;28;20461;-57
2023/07/20 05:20:55;;;;;;;6.38;5.00;;;14.00;99.90;;;;;;5100165;28;20066;-56
2023/07/20 05:23:21;;;;;;;6.80;5.07;;;14.00;99.90;;;;;;5097879;28;20046;-57
2023/07/20 05:25:47;;;;;;;7.50;5.22;;;14.00;99.90;;;;;;5100347;28;20122;-57
2023/07/20 05:28:13;;;;;;;5.68;4.80;;;14.10;99.90;;;;;;5098505;28;20048;-57
2023/07/20 05:30:40;;;;;;;8.45;4.80;;;14.10;99.90;;;;;;5099384;28;20067;-60
2023/07/20 05:33:05;;;;;;;7.47;5.05;;;14.20;99.90;;;;;;5098459;28;20070;-56
2023/07/20 05:35:31;;;;;;;7.03;4.90;;;14.20;99.90;;;;;;5100521;28;20036;-57
2023/07/20 05:37:57;;;;;;;6.53;4.93;;;14.20;99.90;;;;;;5099507;28;20086;-56
2023/07/20 05:40:23;;;;;;;6.82;4.85;;;14.20;99.90;;;;;;5097745;28;20075;-56
2023/07/20 05:42:51;;;;;;;8.45;4.78;;;14.30;99.90;;;;;;5099908;28;20036;-57
2023/07/20 05:45:18;;;;;;;5.65;4.18;;;14.30;99.90;;;;;;5097857;28;20052;-57
2023/07/20 05:47:43;;;;;;;8.30;4.82;;;14.30;99.90;;;;;;5098986;28;20040;-57
2023/07/20 05:50:10;;;;;;;5.65;3.60;;;14.40;99.90;;;;;;5098248;28;20040;-57
2023/07/20 05:52:36;;;;;;;11.23;4.03;;;14.40;99.90;;;;;;5100586;28;20438;-57
2023/07/20 05:55:01;;;;;;;6.70;3.58;;;14.40;99.90;;;;;;5097968;28;20047;-56
2023/07/20 05:57:27;;;;;;;4.22;3.30;;;14.50;99.90;;;;;;5099128;28;20044;-57
2023/07/20 05:59:53;;;;;;;6.97;3.58;;;14.60;99.90;;;;;;5098620;28;20123;-56
2023/07/20 06:02:18;;;;;;;6.13;3.55;;;14.60;99.90;;;;;;5098121;28;20130;-57
2023/07/20 06:04:44;;;;;;;6.20;3.20;;;14.60;99.90;;;;;;5100093;28;20504;-56
2023/07/20 06:07:10;;;;;;;7.05;3.40;;;14.70;99.90;;;;;;5097813;28;20055;-57
2023/07/20 06:09:36;;;;;;;10.38;3.67;;;14.80;99.90;;;;;;5099190;28;20104;-57
2023/07/20 06:12:02;;;;;;;4.32;2.85;;;14.80;99.90;;;;;;5096847;28;20510;-57
2023/07/20 06:14:27;;;;;;;4.75;3.20;;;14.90;99.90;;;;;;5099182;28;20036;-57
2023/07/20 06:16:53;;;;;;;7.20;2.90;;;14.90;99.90;;;;;;5098161;28;20104;-56
2023/07/20 06:19:19;;;;;;;6.00;2.60;;;15.00;99.90;;;;;;5096737;28;20063;-57
2023/07/20 06:21:44;;;;;;;3.15;2.30;;;15.00;99.90;;;;;;5100031;28;20036;-56
2023/07/20 06:24:10;;;;;;;4.13;2.35;;;15.10;99.90;;;;;;5097728;28;20036;-57
2023/07/20 06:26:39;;;;;;;3.50;2.20;;;15.10;99.90;;;;;;5099996;28;20048;-57
2023/07/20 06:29:08;;;;;;;4.32;1.92;;;15.20;99.90;;;;;;5098412;28;20048;-56
2023/07/20 06:31:35;;;;;;;2.55;2.00;;;15.30;99.90;;;;;;5099056;28;20040;-57
2023/07/20 06:34:01;;;;;;;5.35;1.70;;;15.40;99.90;;;;;;5099566;28;20044;-57
2023/07/20 06:36:27;;;;;;;3.55;1.90;;;15.50;99.90;;;;;;5097950;28;20120;-57
2023/07/20 06:38:53;;;;;;;4.65;2.00;;;15.50;99.90;;;;;;5099784;28;20128;-57
2023/07/20 06:41:19;;;;;;;6.40;1.92;;;15.50;99.90;;;;;;5097412;28;20040;-58
2023/07/20 06:43:45;;;;;;;3.47;1.80;;;15.60;99.90;;;;;;5099971;28;20040;-57
2023/07/20 06:46:11;;;;;;;5.60;1.50;;;15.70;99.90;;;;;;5096916;28;20047;-56
2023/07/20 06:48:37;;;;;;;4.10;1.80;;;15.90;99.90;;;;;;5099007;28;20040;-57
2023/07/20 06:51:02;;;;;;;5.82;1.88;;;16.00;99.90;;;;;;5099396;28;20082;-56
2023/07/20 06:53:29;;;;;;;2.45;1.67;;;16.20;99.90;;;;;;5097750;28;20036;-57
2023/07/20 06:55:58;;;;;;;4.57;1.30;;;16.30;99.90;;;;;;5101139;28;20102;-57
2023/07/20 06:58:24;;;;;;;2.63;1.67;;;16.40;99.90;;;;;;5101310;28;20078;-57
2023/07/20 07:00:50;;;;;;;2.83;1.58;;;16.60;99.90;;;;;;5103953;28;20036;-56
2023/07/20 07:03:16;;;;;;;3.20;1.17;;;16.80;99.90;;;;;;5101888;28;20062;-56
2023/07/20 07:05:42;;;;;;;8.93;1.50;;;17.00;99.90;;;;;;5102852;28;20078;-57
2023/07/20 07:08:08;;;;;;;4.00;1.33;;;17.20;99.90;;;;;;5103034;28;20032;-56
2023/07/20 07:10:36;;;;;;;5.55;1.27;;;17.40;99.90;;;;;;5101184;28;20044;-56
2023/07/20 07:13:02;;;;;;;5.68;1.30;;;17.50;99.90;;;;;;5103240;28;20396;-56
2023/07/20 07:15:28;;;;;;;2.25;0.93;;;17.70;99.90;;;;;;5101350;28;20082;-57
2023/07/20 07:17:54;;;;;;;2.47;1.00;;;17.80;99.90;;;;;;5103314;28;20044;-56
2023/07/20 07:20:19;;;;;;;2.90;1.20;;;17.80;99.90;;;;;;5083030;28;20036;-56
2023/07/20 07:22:46;;;;;;;1.90;1.10;;;17.80;99.90;;;;;;5102679;28;20059;-56
2023/07/20 07:25:12;;;;;;;5.72;1.30;;;17.60;99.90;;;;;;5102369;28;20048;-57
2023/07/20 07:27:38;;;;;;;3.47;1.20;;;17.40;99.90;;;;;;5100065;28;20044;-57
2023/07/20 07:30:04;;;;;;;1.60;1.02;;;17.40;99.90;;;;;;5101194;28;20046;-57
2023/07/20 07:32:31;;;;;;;3.08;1.23;;;17.70;99.90;;;;;;5100826;28;20048;-57
2023/07/20 07:34:58;;;;;;;1.75;1.02;;;18.10;99.90;;;;;;5103013;28;20036;-57
2023/07/20 07:37:24;;;;;;;4.00;1.20;;;18.60;99.90;;;;;;5099372;28;20058;-57
2023/07/20 07:39:49;;;;;;;4.32;1.10;;;19.00;99.90;;;;;;5101094;28;20044;-57
2023/07/20 07:42:15;;;;;;;1.75;0.98;;;19.30;99.90;;;;;;5101845;28;20074;-56
2023/07/20 07:44:41;;;;;;;2.15;0.90;;;19.50;99.90;;;;;;5099922;28;20040;-57
2023/07/20 07:47:07;;;;;;;4.22;0.90;;;19.70;99.90;;;;;;5102465;28;20119;-57
2023/07/20 07:49:32;;;;;;;7.03;1.10;;;19.70;99.90;;;;;;5100639;28;20226;-57
2023/07/20 07:51:58;;;;;;;2.80;1.20;;;19.70;99.90;;;;;;5102518;28;20040;-57
2023/07/20 07:54:24;;;;;;;2.78;1.10;;;19.50;99.90;;;;;;5098972;28;20040;-57
2023/07/20 07:56:51;;;;;;;2.35;0.95;;;19.40;99.90;;;;;;5102634;28;20040;-57
2023/07/20 07:59:17;;;;;;;1.90;1.00;;;19.20;99.90;;;;;;5101621;28;20032;-57
2023/07/20 08:01:42;;;;;;;2.88;1.00;;;18.90;99.90;;;;;;5101033;28;20058;-58
2023/07/20 08:04:08;;;;;;;1.55;0.90;;;18.70;99.90;;;;;;5100654;28;20104;-58
2023/07/20 08:06:34;;;;;;;2.33;1.10;;;18.40;99.90;;;;;;5100087;28;20067;-58
2023/07/20 08:09:00;;;;;;;1.85;1.15;;;18.20;99.90;;;;;;5101943;28;20048;-57
2023/07/20 08:11:26;;;;;;;2.85;0.90;;;18.00;99.90;;;;;;5099803;28;20129;-57
2023/07/20 08:13:51;;;;;;;2.35;1.00;;;17.80;99.90;;;;;;5102618;28;20099;-57
2023/07/20 08:16:17;;;;;;;3.90;1.10;;;17.80;99.90;;;;;;5082728;28;20043;-57
2023/07/20 08:18:45;;;;;;;2.45;1.23;;;17.80;99.90;;;;;;5099621;28;20055;-57
2023/07/20 08:21:11;;;;;;;4.10;1.40;;;18.10;99.90;;;;;;5100152;28;20051;-55
2023/07/20 08:23:36;;;;;;;3.15;1.20;;;18.40;99.90;;;;;;5099999;28;20138;-55
2023/07/20 08:26:02;;;;;;;2.28;0.93;;;18.60;99.90;;;;;;5101765;28;20052;-56
2023/07/20 08:28:29;;;;;;;3.00;1.30;;;18.70;99.90;;;;;;5099749;28;20064;-55
2023/07/20 08:30:54;;;;;;;2.20;1.20;;;18.70;99.90;;;;;;5100909;28;20044;-55
2023/07/20 08:33:20;;;;;;;2.30;1.20;;;18.60;99.90;;;;;;5100265;28;20048;-55
2023/07/20 08:35:47;;;;;;;2.70;1.25;;;18.50;99.90;;;;;;5100925;28;20063;-55
2023/07/20 08:38:12;;;;;;;2.70;1.05;;;18.40;99.90;;;;;;5100020;28;20039;-55
2023/07/20 08:40:46;;;;;;;2.00;1.13;;;18.30;99.90;;;;;;5099391;28;20047;-55
2023/07/20 08:43:12;;;;;;;3.40;1.00;;;18.30;99.90;;;;;;5100001;28;20083;-56
2023/07/20 08:45:40;;;;;;;3.83;1.20;;;18.40;99.90;;;;;;5099150;28;20044;-55
2023/07/20 08:48:07;;;;;;;2.47;1.00;;;18.70;99.90;;;;;;5101770;28;20043;-55
2023/07/20 08:50:34;;;;;;;1.63;0.98;;;18.90;99.90;;;;;;5098837;28;20044;-54
2023/07/20 08:53:02;;;;;;;4.07;1.13;;;19.20;99.90;;;;;;5100435;28;20451;-55
2023/07/20 08:55:28;;;;;;;2.97;1.10;;;19.50;99.90;;;;;;5101263;28;20050;-55
2023/07/20 08:57:55;;;;;;;1.85;1.00;;;19.70;99.90;;;;;;5099388;28;20445;-55
2023/07/20 09:00:23;;;;;;;2.70;1.00;;;19.80;99.90;;;;;;5099687;28;20039;-57
2023/07/20 09:02:54;;;;;;;4.55;1.17;;;19.90;99.90;;;;;;5097481;28;20040;-57
2023/07/20 09:05:24;;;;;;;4.18;1.10;;;19.80;99.90;;;;;;5101225;28;20055;-57
2023/07/20 09:07:51;;;;;;;2.67;0.93;;;19.60;99.90;;;;;;5100120;28;20036;-56
2023/07/20 09:10:17;;;;;;;2.70;0.90;;;19.40;99.90;;;;;;5099633;28;20480;-57
2023/07/20 09:12:43;;;;;;;1.60;0.90;;;19.30;99.90;;;;;;5100524;28;20051;-57
2023/07/20 09:15:10;;;;;;;3.35;0.93;;;19.20;99.90;;;;;;5097439;28;20036;-57
2023/07/20 09:17:40;;;;;;;2.97;0.88;;;19.10;99.90;;;;;;5099367;28;20044;-56
2023/07/20 09:20:12;;;;;;;3.85;1.10;;;19.10;99.90;;;;;;5079935;28;20066;-57
2023/07/20 09:22:41;;;;;;;2.42;0.88;;;19.00;99.90;;;;;;5100747;28;20032;-57
2023/07/20 09:25:15;;;;;;;2.97;0.90;;;19.00;99.90;;;;;;5100048;28;20108;-56
2023/07/20 09:27:43;;;;;;;3.05;1.17;;;19.00;99.90;;;;;;5098714;28;20078;-56
2023/07/20 09:30:12;;;;;;;3.47;1.38;;;19.00;99.90;;;;;;5100617;28;20047;-57
2023/07/20 09:32:40;;;;;;;3.78;1.17;;;19.00;99.90;;;;;;5098406;28;20078;-57
2023/07/20 09:35:06;;;;;;;2.60;1.40;;;19.00;99.90;;;;;;5100904;28;20094;-59
2023/07/20 09:37:33;;;;;;;2.30;1.15;;;19.10;99.90;;;;;;5098792;28;20705;-56
2023/07/20 09:39:59;;;;;;;2.45;1.10;;;19.20;99.90;;;;;;5099941;28;20042;-56
2023/07/20 09:42:27;;;;;;;2.85;0.90;;;19.40;99.90;;;;;;5099773;28;20079;-56
2023/07/20 09:44:53;;;;;;;3.75;1.00;;;19.60;99.90;;;;;;5098477;28;20063;-57
2023/07/20 09:47:22;;;;;;;1.48;0.80;;;19.70;99.90;;;;;;5100346;28;20032;-57
2023/07/20 09:49:48;;;;;;;3.15;1.13;;;19.80;99.90;;;;;;5096715;28;20075;-57
2023/07/20 09:52:14;;;;;;;2.85;1.02;;;19.90;99.90;;;;;;5100578;28;20048;-57
2023/07/20 09:54:40;;;;;;;4.75;1.00;;;19.90;99.90;;;;;;5098627;28;20095;-56
2023/07/20 09:57:11;;;;;;;1.52;1.00;;;19.90;99.90;;;;;;5099266;28;20055;-56
2023/07/20 09:59:37;;;;;;;1.50;1.08;;;20.00;99.90;;;;;;5099891;28;20055;-56
2023/07/20 10:02:11;;;;;;;1.48;1.10;;;19.80;99.90;;;;;;5098102;28;20044;-56
2023/07/20 10:04:37;;;;;;;1.63;0.95;;;19.90;99.90;;;;;;5100188;28;20406;-57
2023/07/20 10:07:10;;;;;;;1.83;0.88;;;19.70;99.90;;;;;;5097728;28;20040;-56
2023/07/20 10:09:38;;;;;;;3.45;1.00;;;19.60;99.90;;;;;;5100065;28;20062;-56
2023/07/20 10:12:06;;;;;;;2.70;0.98;;;19.40;99.90;;;;;;5098965;28;20064;-56
2023/07/20 10:14:38;;;;;;;2.20;1.13;;;19.20;99.90;;;;;;5097382;28;20052;-57
2023/07/20 10:17:05;;;;;;;1.63;0.82;;;19.00;99.90;;;;;;5098482;28;20117;-57
2023/07/20 10:19:47;;;;;;;3.00;1.00;;;18.90;99.90;;;;;;5097962;28;20127;-57
2023/07/20 10:22:19;;;;;;;4.70;1.02;;;18.80;99.90;;;;;;5100150;28;20032;-57
2023/07/20 10:24:49;;;;;;;1.75;0.95;;;18.70;99.90;;;;;;5098536;28;20071;-57
2023/07/20 10:27:15;;;;;;;5.65;1.10;;;18.60;99.90;;;;;;5098867;28;20040;-57
2023/07/20 10:29:42;;;;;;;2.67;1.00;;;18.60;99.90;;;;;;5099612;28;20096;-56
2023/07/20 10:32:09;;;;;;;6.25;1.27;;;18.60;99.90;;;;;;5100193;28;20078;-56
2023/07/20 10:34:35;;;;;;;5.03;1.13;;;18.70;99.90;;;;;;5103870;28;20112;-56
2023/07/20 10:37:00;;;;;;;3.88;1.25;;;18.80;99.90;;;;;;5100451;28;20084;-56
2023/07/20 10:39:30;;;;;;;2.33;0.95;;;18.90;99.90;;;;;;5104253;28;20078;-57
2023/07/20 10:42:09;;;;;;;3.55;1.00;;;19.10;99.90;;;;;;5102401;28;20042;-56
2023/07/20 10:44:40;;;;;;;3.10;1.20;;;19.20;99.90;;;;;;5102314;28;20051;-56
2023/07/20 10:47:10;;;;;;;3.50;1.20;;;19.30;99.90;;;;;;5102381;28;20050;-56
2023/07/20 10:50:00;;;;;;;3.47;1.20;;;19.40;99.90;;;;;;5101735;28;20047;-56
2023/07/20 10:52:25;;;;;;;5.07;1.40;;;19.50;99.90;;;;;;5104051;28;20040;-56
2023/07/20 10:54:51;;;;;;;1.95;1.10;;;19.50;99.90;;;;;;5101505;28;20047;-56
2023/07/20 10:57:37;;;;;;;2.58;1.17;;;19.60;99.90;;;;;;5102331;28;20385;-56
2023/07/20 11:00:14;;;;;;;3.78;1.20;;;19.80;99.90;;;;;;5103275;28;20079;-57
2023/07/20 11:02:48;;;;;;;4.20;1.30;;;19.90;99.90;;;;;;5099731;28;20075;-56
2023/07/20 11:05:40;;;;;;;4.25;1.40;;;20.10;99.90;;;;;;5103677;28;20471;-56
2023/07/20 11:08:41;;;;;;;2.58;1.52;;;20.20;99.90;;;;;;5103204;28;20051;-56
2023/07/20 11:11:28;;;;;;;2.80;1.40;;;20.20;99.90;;;;;;5101059;28;20040;-56
2023/07/20 11:14:00;;;;;;;2.90;1.17;;;20.20;99.90;;;;;;5103550;28;20048;-57
2023/07/20 11:16:45;;;;;;;3.22;1.40;;;20.10;99.90;;;;;;5102518;28;20044;-56
2023/07/20 11:19:15;;;;;;;3.47;1.42;;;20.10;99.90;;;;;;5101246;28;20044;-56
2023/07/20 11:21:42;;;;;;;3.60;1.42;;;20.10;99.90;;;;;;5102067;28;20105;-56
2023/07/20 11:24:10;;;;;;;4.57;1.40;;;20.10;99.90;;;;;;5100711;28;20048;-56
2023/07/20 11:26:50;;;;;;;2.50;1.40;;;20.10;99.90;;;;;;5103535;28;20107;-56
2023/07/20 11:29:23;;;;;;;3.25;1.75;;;20.10;99.90;;;;;;5102284;28;20051;-55
2023/07/20 11:31:49;;;;;;;4.20;1.23;;;20.20;99.90;;;;;;5101298;28;20036;-56
2023/07/20 11:34:20;;;;;;;2.42;1.35;;;20.20;99.90;;;;;;5102731;28;20044;-56
2023/07/20 11:36:48;;;;;;;2.30;1.00;;;20.10;99.90;;;;;;5101039;28;20050;-56
2023/07/20 11:39:15;;;;;;;3.55;1.27;;;20.10;99.90;;;;;;5102989;28;20366;-56
2023/07/20 11:41:49;;;;;;;2.85;1.38;;;20.10;99.90;;;;;;5100240;28;20036;-56
2023/07/20 11:44:16;;;;;;;5.55;1.63;;;20.10;99.90;;;;;;5102041;28;20063;-57
2023/07/20 11:46:44;;;;;;;2.60;1.20;;;20.20;99.90;;;;;;5102350;28;20509;-56
2023/07/20 11:49:10;;;;;;;4.68;1.27;;;20.30;99.90;;;;;;5100592;28;20044;-57
2023/07/20 11:51:37;;;;;;;4.28;1.20;;;20.10;99.90;;;;;;5102486;28;20259;-56
2023/07/20 11:54:05;;;;;;;4.10;1.05;;;20.10;99.90;;;;;;5100469;28;20044;-57
2023/07/20 11:56:31;;;;;;;3.13;1.10;;;20.10;99.90;;;;;;5101665;28;20055;-57
2023/07/20 11:58:59;;;;;;;3.25;1.30;;;20.20;99.90;;;;;;5100982;28;20396;-56
2023/07/20 12:01:28;;;;;;;1.02;0.80;;;20.20;99.90;;;;;;5101502;28;20101;-56
2023/07/20 12:03:59;;;;;;;2.53;1.23;;;20.20;99.90;;;;;;5100733;28;20119;-56
2023/07/20 12:06:27;;;;;;;2.38;1.08;;;20.30;99.90;;;;;;5099053;28;20032;-57
2023/07/20 12:08:57;;;;;;;3.45;1.10;;;20.30;99.90;;;;;;5102327;28;20083;-56
2023/07/20 12:11:37;;;;;;;3.15;1.08;;;20.40;99.90;;;;;;5099611;28;20123;-56
2023/07/20 12:14:09;;;;;;;2.35;1.10;;;20.50;99.90;;;;;;5100460;28;20036;-58
2023/07/20 12:16:38;;;;;;;1.95;1.02;;;20.70;99.90;;;;;;5101886;28;20421;-57
2023/07/20 12:19:14;;;;;;;3.90;1.00;;;20.90;99.90;;;;;;5100151;28;20051;-57
2023/07/20 12:21:42;;;;;;;2.22;1.00;;;21.00;99.90;;;;;;5101994;28;20051;-56
2023/07/20 12:24:10;;;;;;;1.20;0.90;;;21.00;99.90;;;;;;5099572;28;20133;-57
2023/07/20 12:26:35;;;;;;;2.35;1.02;;;21.00;99.90;;;;;;5102240;28;20052;-56
2023/07/20 12:29:03;;;;;;;4.88;1.00;;;21.00;99.90;;;;;;5099051;28;20092;-55
2023/07/20 12:31:29;;;;;;;1.95;0.90;;;21.10;99.90;;;;;;5100771;28;20452;-57
2023/07/20 12:33:57;;;;;;;1.38;0.80;;;21.10;99.90;;;;;;5100262;28;20040;-57
2023/07/20 12:36:23;;;;;;;1.67;0.98;;;21.20;99.90;;;;;;5098611;28;20096;-57
2023/07/20 12:38:49;;;;;;;2.63;0.95;;;21.30;99.90;;;;;;5101592;28;20040;-56
2023/07/20 12:41:15;;;;;;;1.58;1.00;;;21.70;99.90;;;;;;5099229;28;20063;-57
2023/07/20 12:43:42;;;;;;;3.13;1.13;;;21.90;99.90;;;;;;5101776;28;20420;-57
2023/07/20 12:46:08;;;;;;;2.47;0.90;;;22.20;99.90;;;;;;5100339;28;20180;-56
2023/07/20 12:48:36;;;;;;;2.25;1.00;;;22.40;99.20;;;;;;5100431;28;20042;-57